Time;durP1;ratioP1;P1;durP2;ratioP2;P2;SDS_P1;SDS_P2;PMS_P1;PMS_P2;Temp;Humidity;BMP_temperature;BMP_pressure;BME280_temperature;BME280_humidity;BME280_pressure;Samples;Min_cycle;Max_cycle;Signal;HPM_P1;HPM_P2
2022/04/21 00:00:34;;;;;;;1.27;1.00;;;18.30;42.90;;;;;;5055246;28;20181;-91
2022/04/21 00:03:01;;;;;;;1.03;0.93;;;18.30;43.00;;;;;;5055347;28;20184;-91
2022/04/21 00:05:26;;;;;;;0.87;0.87;;;18.30;42.90;;;;;;5054751;28;20187;-91
2022/04/21 00:07:53;;;;;;;2.20;0.90;;;18.30;43.00;;;;;;5054252;28;20241;-91
2022/04/21 00:10:19;;;;;;;1.03;0.97;;;18.30;43.00;;;;;;5055233;28;20269;-91
2022/04/21 00:12:45;;;;;;;1.30;1.00;;;18.30;43.00;;;;;;5055478;28;20212;-91
2022/04/21 00:15:11;;;;;;;1.00;1.00;;;18.30;43.10;;;;;;5055277;28;20176;-91
2022/04/21 00:17:38;;;;;;;1.13;1.00;;;18.30;43.10;;;;;;5054262;28;20463;-91
2022/04/21 00:20:05;;;;;;;1.10;1.00;;;18.20;43.00;;;;;;5054568;28;20252;-91
2022/04/21 00:25:15;;;;;;;0.90;0.90;;;18.20;43.00;;;;;;5055410;28;20185;-91
2022/04/21 00:27:43;;;;;;;0.90;0.90;;;18.20;43.10;;;;;;5054867;28;20175;-91
2022/04/21 00:30:10;;;;;;;1.10;1.00;;;18.20;43.10;;;;;;5055338;28;20172;-91
2022/04/21 00:32:37;;;;;;;0.93;0.93;;;18.20;43.10;;;;;;5055231;28;20203;-91
2022/04/21 00:35:04;;;;;;;1.10;1.00;;;18.20;43.10;;;;;;5053977;28;20176;-91
2022/04/21 00:37:30;;;;;;;1.10;1.00;;;18.20;43.10;;;;;;5054507;28;20198;-90
2022/04/21 00:39:56;;;;;;;1.00;0.90;;;18.20;43.10;;;;;;5054802;28;20453;-90
2022/04/21 00:42:22;;;;;;;1.20;1.00;;;18.20;43.20;;;;;;5053026;28;20175;-90
2022/04/21 00:44:51;;;;;;;1.77;1.23;;;18.10;43.10;;;;;;5054029;28;20208;-90
2022/04/21 00:47:20;;;;;;;1.17;1.00;;;18.10;43.10;;;;;;5054066;28;20227;-90
2022/04/21 00:49:47;;;;;;;1.43;1.00;;;18.10;43.10;;;;;;5053882;28;20178;-90
2022/04/21 00:52:15;;;;;;;1.20;1.00;;;18.10;43.10;;;;;;5053478;28;20222;-90
2022/04/21 00:54:42;;;;;;;1.47;0.90;;;18.10;43.10;;;;;;5053592;28;20168;-90
2022/04/21 00:57:08;;;;;;;1.20;0.90;;;18.10;43.20;;;;;;5055095;28;20173;-90
2022/04/21 00:59:34;;;;;;;1.10;1.00;;;18.10;43.20;;;;;;5054804;28;20172;-90
2022/04/21 01:04:48;;;;;;;1.23;1.00;;;18.10;43.20;;;;;;5053671;28;20197;-91
2022/04/21 01:07:17;;;;;;;0.90;0.90;;;18.10;43.20;;;;;;5053706;28;20174;-91
2022/04/21 01:09:42;;;;;;;1.20;1.10;;;18.10;43.20;;;;;;5054276;28;20365;-91
2022/04/21 01:12:09;;;;;;;1.20;1.10;;;18.10;43.20;;;;;;5054458;28;20213;-91
2022/04/21 01:14:38;;;;;;;1.10;1.00;;;18.10;43.20;;;;;;5054344;28;20169;-91
2022/04/21 01:17:09;;;;;;;1.10;1.00;;;18.00;43.10;;;;;;5054490;28;20268;-91
2022/04/21 01:19:50;;;;;;;1.10;1.00;;;18.00;43.20;;;;;;5049744;28;20198;-91
2022/04/21 01:22:16;;;;;;;1.10;1.00;;;18.00;43.20;;;;;;5042106;28;20177;-91
2022/04/21 01:24:42;;;;;;;1.47;1.10;;;18.00;43.20;;;;;;5053801;28;20271;-91
2022/04/21 01:27:07;;;;;;;0.90;0.90;;;18.00;43.20;;;;;;5052598;28;20213;-91
2022/04/21 01:29:33;;;;;;;1.00;0.90;;;18.00;43.20;;;;;;5053575;28;20190;-91
2022/04/21 01:31:59;;;;;;;1.27;1.00;;;18.00;43.20;;;;;;5053395;28;20218;-91
2022/04/21 01:34:25;;;;;;;1.00;0.90;;;18.00;43.30;;;;;;5052625;28;20188;-91
2022/04/21 01:42:18;;;;;;;1.20;1.10;;;18.00;43.30;;;;;;5053924;28;20484;-91
2022/04/21 01:44:45;;;;;;;1.30;0.93;;;17.90;43.30;;;;;;5051636;28;20169;-91
2022/04/21 01:47:11;;;;;;;1.00;0.90;;;17.90;43.30;;;;;;5052877;28;20222;-91
2022/04/21 01:49:37;;;;;;;0.97;0.87;;;17.90;43.30;;;;;;5052619;28;20183;-91
2022/04/21 01:52:04;;;;;;;1.10;1.00;;;17.90;43.30;;;;;;5053063;28;20498;-91
2022/04/21 01:54:29;;;;;;;1.93;1.00;;;17.90;43.40;;;;;;5052207;28;20455;-91
2022/04/21 01:56:55;;;;;;;1.10;1.03;;;17.90;43.40;;;;;;5052555;28;20563;-91
2022/04/21 01:59:21;;;;;;;1.10;1.00;;;17.90;43.40;;;;;;5052453;28;20486;-91
2022/04/21 02:01:46;;;;;;;1.07;0.90;;;17.90;43.40;;;;;;5051933;28;20473;-91
2022/04/21 02:04:12;;;;;;;0.90;0.90;;;17.90;43.40;;;;;;5055010;28;20172;-91
2022/04/21 02:06:38;;;;;;;0.90;0.87;;;17.90;43.40;;;;;;5055460;28;20173;-91
2022/04/21 02:09:04;;;;;;;1.10;1.00;;;17.80;43.40;;;;;;5056985;28;20436;-91
2022/04/21 02:11:29;;;;;;;1.20;1.10;;;17.80;43.40;;;;;;5056839;28;20302;-91
2022/04/21 02:13:55;;;;;;;1.37;1.10;;;17.80;43.40;;;;;;5056780;28;20205;-91
2022/04/21 02:16:21;;;;;;;0.80;0.80;;;17.80;43.40;;;;;;5056801;28;20179;-91
2022/04/21 02:18:47;;;;;;;1.00;0.90;;;17.80;43.40;;;;;;5056208;28;20175;-91
2022/04/21 02:21:13;;;;;;;1.30;1.03;;;17.80;43.40;;;;;;5056381;28;20408;-91
2022/04/21 02:23:39;;;;;;;1.00;0.90;;;17.80;43.40;;;;;;5056251;28;20279;-91
2022/04/21 02:26:04;;;;;;;1.10;1.00;;;17.80;43.40;;;;;;5056772;28;20237;-91
2022/04/21 02:28:30;;;;;;;1.30;0.90;;;17.70;43.40;;;;;;5056523;28;20220;-91
2022/04/21 02:30:56;;;;;;;1.77;1.07;;;17.70;43.40;;;;;;5057070;28;20238;-92
2022/04/21 02:33:21;;;;;;;1.10;1.00;;;17.70;43.40;;;;;;5056344;28;20594;-91
2022/04/21 02:35:47;;;;;;;1.33;1.00;;;17.70;43.40;;;;;;5058247;28;20170;-91
2022/04/21 02:38:13;;;;;;;1.00;0.90;;;17.70;43.40;;;;;;5056900;28;20179;-91
2022/04/21 02:40:40;;;;;;;1.83;1.10;;;17.70;43.40;;;;;;5056869;28;20456;-91
2022/04/21 02:43:07;;;;;;;1.33;1.10;;;17.70;43.40;;;;;;5057039;28;20516;-91
2022/04/21 02:45:35;;;;;;;1.10;1.00;;;17.70;43.40;;;;;;5056962;28;20175;-90
2022/04/21 02:48:01;;;;;;;1.20;1.10;;;17.60;43.40;;;;;;5056243;28;20203;-91
2022/04/21 02:50:27;;;;;;;0.90;0.90;;;17.70;43.40;;;;;;5056323;28;20441;-91
2022/04/21 02:52:53;;;;;;;1.30;1.03;;;17.60;43.40;;;;;;5056101;28;20208;-91
2022/04/21 02:58:04;;;;;;;1.03;0.90;;;17.60;43.40;;;;;;5056619;28;20185;-91
2022/04/21 03:00:30;;;;;;;0.80;0.80;;;17.60;43.40;;;;;;5055355;28;20320;-91
2022/04/21 03:02:58;;;;;;;0.90;0.90;;;17.60;43.40;;;;;;5055478;28;20547;-91
2022/04/21 03:05:24;;;;;;;1.20;1.10;;;17.60;43.50;;;;;;5056046;28;20187;-91
2022/04/21 03:07:50;;;;;;;1.13;0.90;;;17.60;43.50;;;;;;5055703;28;20181;-91
2022/04/21 03:10:16;;;;;;;0.87;0.87;;;17.60;43.50;;;;;;5055543;28;20180;-91
2022/04/21 03:12:41;;;;;;;1.10;1.00;;;17.60;43.50;;;;;;5055808;28;20211;-91
2022/04/21 03:15:11;;;;;;;2.03;1.00;;;17.60;43.50;;;;;;5056158;28;20184;-91
2022/04/21 03:17:37;;;;;;;1.50;1.10;;;17.60;43.50;;;;;;5056229;28;20179;-91
2022/04/21 03:20:04;;;;;;;1.00;1.00;;;17.50;43.40;;;;;;5055280;28;20173;-92
2022/04/21 03:25:15;;;;;;;1.13;1.00;;;17.60;43.50;;;;;;5056749;28;20193;-91
2022/04/21 03:27:43;;;;;;;1.60;1.40;;;17.50;43.50;;;;;;5055644;28;20326;-91
2022/04/21 03:30:09;;;;;;;1.20;1.10;;;17.50;43.50;;;;;;5055386;28;20181;-91
2022/04/21 03:32:36;;;;;;;1.00;0.90;;;17.50;43.50;;;;;;5055562;28;20204;-91
2022/04/21 03:35:03;;;;;;;1.00;0.90;;;17.50;43.50;;;;;;5055176;28;20178;-91
2022/04/21 03:37:28;;;;;;;1.47;1.13;;;17.50;43.50;;;;;;5055618;28;20247;-92
2022/04/21 03:39:54;;;;;;;1.23;0.90;;;17.50;43.50;;;;;;5055234;28;20277;-91
2022/04/21 03:42:26;;;;;;;1.23;1.07;;;17.50;43.50;;;;;;5055095;28;20275;-91
2022/04/21 03:44:52;;;;;;;1.27;1.10;;;17.40;43.50;;;;;;5054995;28;20181;-91
2022/04/21 03:47:19;;;;;;;1.20;1.10;;;17.40;43.50;;;;;;5055453;28;20179;-91
2022/04/21 03:49:45;;;;;;;3.10;1.40;;;17.40;43.50;;;;;;5055633;28;20222;-91
2022/04/21 03:52:11;;;;;;;1.47;1.10;;;17.40;43.60;;;;;;5053631;28;20302;-91
2022/04/21 03:54:37;;;;;;;1.10;1.00;;;17.40;43.50;;;;;;5054976;28;20288;-91
2022/04/21 03:57:03;;;;;;;1.00;0.90;;;17.40;43.60;;;;;;5054670;28;20168;-91
2022/04/21 03:59:29;;;;;;;1.10;1.00;;;17.40;43.50;;;;;;5054177;28;20509;-91
2022/04/21 04:02:02;;;;;;;1.37;1.17;;;17.40;43.60;;;;;;5054367;28;20178;-91
2022/04/21 04:04:31;;;;;;;1.10;1.00;;;17.40;43.60;;;;;;5053654;28;20571;-91
2022/04/21 04:12:32;;;;;;;1.20;1.10;;;17.30;43.60;;;;;;5054772;28;20220;-91
2022/04/21 04:15:01;;;;;;;1.17;1.07;;;17.30;43.60;;;;;;5054294;28;20176;-91
2022/04/21 04:17:27;;;;;;;3.13;1.10;;;17.30;43.60;;;;;;5054350;28;20173;-91
2022/04/21 04:19:53;;;;;;;1.33;1.10;;;17.30;43.60;;;;;;5052869;28;20178;-91
2022/04/21 04:22:19;;;;;;;1.60;1.20;;;17.30;43.60;;;;;;5054140;28;20463;-90
2022/04/21 04:24:45;;;;;;;2.10;1.00;;;17.30;43.60;;;;;;5052988;28;20180;-90
2022/04/21 04:27:11;;;;;;;1.00;0.90;;;17.30;43.60;;;;;;5052544;28;20184;-90
2022/04/21 04:29:37;;;;;;;1.10;1.00;;;17.30;44.00;;;;;;5052880;28;20303;-91
2022/04/21 04:32:03;;;;;;;1.20;1.10;;;17.30;43.60;;;;;;5052177;28;20210;-91
2022/04/21 04:34:29;;;;;;;1.27;1.17;;;17.30;43.60;;;;;;5051841;28;20427;-90
2022/04/21 04:36:54;;;;;;;1.57;1.03;;;17.20;43.60;;;;;;5053065;28;20327;-90
2022/04/21 04:39:20;;;;;;;1.20;1.00;;;17.30;43.60;;;;;;5051773;28;20198;-90
2022/04/21 04:44:30;;;;;;;2.67;1.30;;;17.20;43.60;;;;;;5053374;28;20190;-90
2022/04/21 04:46:57;;;;;;;1.23;1.03;;;17.20;43.50;;;;;;5052158;28;20176;-90
2022/04/21 04:49:23;;;;;;;1.63;1.20;;;17.20;43.60;;;;;;5051758;28;20180;-90
2022/04/21 04:51:49;;;;;;;1.10;1.00;;;17.20;43.50;;;;;;5051329;28;20212;-90
2022/04/21 04:54:15;;;;;;;1.30;1.20;;;17.20;43.60;;;;;;5052266;28;20180;-90
2022/04/21 04:56:46;;;;;;;1.30;1.20;;;17.20;43.60;;;;;;5052404;28;20524;-91
2022/04/21 04:59:13;;;;;;;1.33;1.10;;;17.20;43.50;;;;;;5051655;28;20734;-91
2022/04/21 05:01:45;;;;;;;1.13;1.03;;;17.20;43.60;;;;;;5051793;28;20546;-91
2022/04/21 05:04:19;;;;;;;1.67;1.10;;;17.20;43.50;;;;;;5051445;28;20179;-91
2022/04/21 05:06:50;;;;;;;1.50;1.07;;;17.20;43.60;;;;;;5050488;28;20175;-91
2022/04/21 05:09:21;;;;;;;1.50;1.20;;;17.20;43.50;;;;;;5051658;28;20176;-91
2022/04/21 05:11:51;;;;;;;1.17;1.07;;;17.20;43.50;;;;;;5050444;28;20208;-91
2022/04/21 05:14:17;;;;;;;1.30;1.20;;;17.20;43.50;;;;;;5050479;28;20586;-91
2022/04/21 05:16:43;;;;;;;1.13;1.03;;;17.20;43.50;;;;;;5050056;28;20204;-92
2022/04/21 05:19:10;;;;;;;1.20;1.00;;;17.30;43.50;;;;;;5051144;28;20168;-91
2022/04/21 05:21:37;;;;;;;1.20;1.10;;;17.30;43.40;;;;;;5049990;28;20176;-91
2022/04/21 05:24:05;;;;;;;1.27;1.13;;;17.30;43.40;;;;;;5049798;28;20178;-91
2022/04/21 05:26:32;;;;;;;2.03;1.20;;;17.40;43.40;;;;;;5050458;28;20174;-91
2022/04/21 05:30:54;;;;;;;1.10;1.00;;;17.50;43.30;;;;;;5051044;28;20507;-91
2022/04/21 05:31:58;;;;;;;1.30;1.20;;;17.50;43.20;;;;;;5050333;28;20272;-91
2022/04/21 05:34:26;;;;;;;2.87;1.27;;;17.50;43.20;;;;;;5049528;28;20183;-91
2022/04/21 05:36:52;;;;;;;1.30;1.20;;;17.60;43.20;;;;;;5050180;28;20750;-91
2022/04/21 05:39:18;;;;;;;1.37;1.20;;;17.60;43.10;;;;;;5053869;28;20167;-91
2022/04/21 05:41:45;;;;;;;1.97;1.20;;;17.70;43.10;;;;;;5052511;28;20208;-91
2022/04/21 05:44:11;;;;;;;1.27;1.10;;;17.70;43.10;;;;;;5053765;28;20386;-91
2022/04/21 05:46:38;;;;;;;1.40;1.27;;;17.80;43.10;;;;;;5052337;28;20172;-91
2022/04/21 05:49:04;;;;;;;1.57;1.20;;;17.80;43.10;;;;;;5051832;28;20401;-91
2022/04/21 05:51:30;;;;;;;2.03;1.30;;;17.80;43.00;;;;;;5055344;28;20501;-91
2022/04/21 05:53:58;;;;;;;1.40;1.30;;;17.90;43.00;;;;;;5054936;28;20167;-91
2022/04/21 05:56:24;;;;;;;1.23;1.10;;;17.90;43.10;;;;;;5053381;28;20211;-91
2022/04/21 05:58:51;;;;;;;1.30;1.10;;;18.00;43.10;;;;;;5052693;28;20179;-91
2022/04/21 06:01:17;;;;;;;1.20;1.10;;;18.00;43.10;;;;;;5052639;28;20169;-91
2022/04/21 06:03:43;;;;;;;1.37;1.20;;;18.10;43.20;;;;;;5052468;28;20617;-91
2022/04/21 06:06:10;;;;;;;1.50;1.20;;;18.10;43.00;;;;;;5052297;28;20412;-91
2022/04/21 06:08:36;;;;;;;1.27;1.10;;;18.20;43.00;;;;;;5051704;28;20440;-91
2022/04/21 06:11:03;;;;;;;3.00;1.30;;;18.20;42.80;;;;;;5052549;28;20669;-91
2022/04/21 06:13:30;;;;;;;1.80;1.40;;;18.30;42.80;;;;;;5052751;28;20353;-91
2022/04/21 06:15:57;;;;;;;2.00;1.27;;;18.30;42.80;;;;;;5053875;28;20184;-91
2022/04/21 06:18:26;;;;;;;1.50;1.30;;;18.40;42.80;;;;;;5053161;28;20193;-91
2022/04/21 06:20:53;;;;;;;2.30;1.47;;;18.40;42.70;;;;;;5053157;28;20174;-91
2022/04/21 06:23:20;;;;;;;1.70;1.40;;;18.50;42.80;;;;;;5052814;28;20274;-92
2022/04/21 06:25:47;;;;;;;2.20;1.43;;;18.60;42.70;;;;;;5052700;28;20456;-91
2022/04/21 06:28:13;;;;;;;1.50;1.40;;;18.70;42.70;;;;;;5053389;28;20200;-91
2022/04/21 06:30:39;;;;;;;1.60;1.43;;;18.70;42.60;;;;;;5050887;28;20199;-91
2022/04/21 06:33:05;;;;;;;2.47;1.60;;;18.80;42.50;;;;;;5052500;28;20479;-91
2022/04/21 06:35:31;;;;;;;2.13;1.50;;;19.00;42.40;;;;;;5051263;28;20169;-91
2022/04/21 06:37:57;;;;;;;1.47;1.37;;;19.30;42.20;;;;;;5049908;28;20168;-90
2022/04/21 06:40:24;;;;;;;2.83;1.43;;;19.50;42.00;;;;;;5051148;28;20188;-91
2022/04/21 06:42:51;;;;;;;3.77;1.80;;;19.70;41.80;;;;;;5051829;28;20168;-91
2022/04/21 06:48:01;;;;;;;2.03;1.63;;;19.90;41.40;;;;;;5051983;28;20224;-91
2022/04/21 06:50:38;;;;;;;2.27;1.50;;;20.10;41.50;;;;;;5051556;28;20172;-91
2022/04/21 06:53:09;;;;;;;3.80;1.77;;;20.10;41.30;;;;;;5049527;28;20207;-91
2022/04/21 06:55:35;;;;;;;3.17;1.80;;;20.30;41.20;;;;;;5049836;28;20187;-91
2022/04/21 06:58:01;;;;;;;2.97;1.80;;;20.30;41.10;;;;;;5050791;28;20184;-91
2022/04/21 07:00:27;;;;;;;3.30;2.00;;;20.40;41.00;;;;;;5050449;28;20226;-90
2022/04/21 07:02:57;;;;;;;3.70;1.93;;;20.50;41.10;;;;;;5050904;28;20176;-91
2022/04/21 07:05:25;;;;;;;4.23;1.67;;;20.60;40.90;;;;;;5049252;28;20238;-91
2022/04/21 07:07:52;;;;;;;1.80;1.60;;;20.70;40.80;;;;;;5050504;28;20310;-92
2022/04/21 07:10:22;;;;;;;4.20;2.10;;;20.80;40.80;;;;;;5050562;28;20794;-92
2022/04/21 07:12:48;;;;;;;2.43;1.90;;;20.70;40.80;;;;;;5049338;28;20306;-92
2022/04/21 07:15:15;;;;;;;3.20;1.90;;;20.90;40.80;;;;;;5049597;28;20279;-92
2022/04/21 07:17:41;;;;;;;3.60;1.80;;;20.90;40.80;;;;;;5048470;28;20179;-91
2022/04/21 07:20:10;;;;;;;2.20;1.70;;;21.00;40.70;;;;;;5050390;28;20174;-91
2022/04/21 07:22:35;;;;;;;3.77;1.97;;;21.10;40.60;;;;;;5050023;28;20237;-91
2022/04/21 07:25:07;;;;;;;2.80;2.03;;;21.10;40.60;;;;;;5050365;28;20171;-91
2022/04/21 07:27:32;;;;;;;3.67;1.80;;;21.20;40.60;;;;;;5049751;28;20262;-91
2022/04/21 07:29:58;;;;;;;2.40;1.70;;;21.30;40.70;;;;;;5050617;28;20763;-91
2022/04/21 07:32:24;;;;;;;2.07;1.77;;;21.30;40.80;;;;;;5052385;28;20271;-92
2022/04/21 07:34:50;;;;;;;4.40;2.03;;;21.20;40.80;;;;;;5048758;28;20192;-91
2022/04/21 07:37:16;;;;;;;2.37;1.87;;;21.20;40.80;;;;;;5050445;28;20172;-92
2022/04/21 07:39:42;;;;;;;2.13;1.80;;;21.20;40.90;;;;;;5049885;28;20171;-92
2022/04/21 07:42:10;;;;;;;2.80;1.90;;;21.30;40.90;;;;;;5048655;28;20388;-92
2022/04/21 07:44:36;;;;;;;2.37;2.00;;;21.20;40.80;;;;;;5049706;28;20275;-92
2022/04/21 07:47:03;;;;;;;4.80;2.27;;;21.40;40.80;;;;;;5048906;28;20278;-92
2022/04/21 07:49:48;;;;;;;1.93;1.60;;;21.60;40.60;;;;;;5049442;28;20343;-92
2022/04/21 07:55:24;;;;;;;3.43;1.90;;;21.90;40.10;;;;;;5050952;28;20179;-92
2022/04/21 07:57:52;;;;;;;2.80;1.90;;;22.00;40.10;;;;;;5049552;28;20178;-92
2022/04/21 08:00:19;;;;;;;2.77;1.87;;;22.20;40.00;;;;;;5049144;28;20176;-93
2022/04/21 08:02:45;;;;;;;5.00;2.20;;;22.30;39.80;;;;;;5050453;28;20176;-93
2022/04/21 08:05:13;;;;;;;4.07;1.87;;;22.40;39.70;;;;;;5050151;28;20433;-92
2022/04/21 08:07:40;;;;;;;2.47;2.07;;;22.30;39.60;;;;;;5050470;28;20287;-91
2022/04/21 08:10:10;;;;;;;3.60;1.93;;;22.20;39.70;;;;;;5049331;28;20752;-93
2022/04/21 08:13:03;;;;;;;2.00;1.70;;;22.20;39.70;;;;;;5049955;28;20203;-92
2022/04/21 08:15:31;;;;;;;2.20;1.87;;;22.40;39.50;;;;;;5046646;28;20287;-92
2022/04/21 08:17:59;;;;;;;2.38;1.77;;;22.60;39.40;;;;;;5050656;28;20570;-92
2022/04/21 08:20:27;;;;;;;2.47;1.73;;;22.70;39.30;;;;;;5050035;28;20171;-92
2022/04/21 08:22:53;;;;;;;2.50;1.85;;;22.80;39.20;;;;;;5049580;28;20172;-92
2022/04/21 08:33:33;;;;;;;4.00;1.80;;;21.70;40.00;;;;;;5048554;28;20261;-92
2022/04/21 08:35:59;;;;;;;3.07;1.80;;;21.80;40.20;;;;;;5047086;28;20168;-91
2022/04/21 08:38:27;;;;;;;1.87;1.57;;;22.10;40.00;;;;;;5048621;28;20261;-92
2022/04/21 08:41:00;;;;;;;2.57;1.80;;;22.30;39.80;;;;;;5048732;28;20199;-92
2022/04/21 08:43:27;;;;;;;3.40;1.80;;;22.60;39.60;;;;;;5047181;28;20237;-91
2022/04/21 08:45:55;;;;;;;1.90;1.70;;;22.60;39.60;;;;;;5046764;28;20626;-91
2022/04/21 08:48:22;;;;;;;2.17;1.60;;;22.60;39.60;;;;;;5046766;28;20179;-92
2022/04/21 08:50:49;;;;;;;2.07;1.40;;;22.50;39.60;;;;;;5047426;28;20176;-93
2022/04/21 08:53:20;;;;;;;2.83;1.87;;;22.20;39.90;;;;;;5048472;28;20688;-92
2022/04/21 08:55:49;;;;;;;1.70;1.60;;;21.90;40.10;;;;;;5047799;28;20215;-92
2022/04/21 08:58:15;;;;;;;2.83;1.70;;;21.80;40.20;;;;;;5047859;28;20548;-92
2022/04/21 09:00:43;;;;;;;2.50;1.63;;;21.80;40.20;;;;;;5048840;28;20360;-92
2022/04/21 09:03:10;;;;;;;1.40;1.30;;;21.70;40.30;;;;;;5048878;28;20172;-92
2022/04/21 09:05:36;;;;;;;2.07;1.63;;;21.90;40.20;;;;;;5046570;28;20586;-92
2022/04/21 09:08:02;;;;;;;3.70;1.60;;;22.00;40.10;;;;;;5045437;28;20610;-92
2022/04/21 09:10:34;;;;;;;2.80;1.60;;;21.90;40.10;;;;;;5046254;28;20172;-92
2022/04/21 09:13:02;;;;;;;3.00;1.80;;;21.90;40.10;;;;;;5045811;28;20204;-93
2022/04/21 09:15:33;;;;;;;2.00;1.50;;;21.60;40.20;;;;;;5046500;28;20164;-92
2022/04/21 09:18:10;;;;;;;2.50;1.50;;;21.40;40.40;;;;;;5047011;28;20271;-92
2022/04/21 09:20:37;;;;;;;1.60;1.40;;;21.30;40.70;;;;;;5046687;28;20172;-92
2022/04/21 09:23:10;;;;;;;1.67;1.50;;;21.00;40.80;;;;;;5047158;28;20714;-91
2022/04/21 09:25:48;;;;;;;1.90;1.40;;;20.90;41.10;;;;;;5045237;28;20202;-91
2022/04/21 09:28:23;;;;;;;1.80;1.50;;;20.80;41.20;;;;;;5044296;28;20324;-92
2022/04/21 09:30:55;;;;;;;1.40;1.30;;;20.70;41.30;;;;;;5044566;28;20462;-92
2022/04/21 09:33:28;;;;;;;2.63;1.57;;;20.70;41.40;;;;;;5045169;28;20285;-92
2022/04/21 09:36:01;;;;;;;2.27;1.37;;;20.60;41.50;;;;;;5044880;28;20175;-91
2022/04/21 09:38:28;;;;;;;3.40;1.57;;;20.50;41.50;;;;;;5046723;28;20166;-91
2022/04/21 09:40:54;;;;;;;2.63;1.47;;;20.50;41.60;;;;;;5046782;28;20176;-91
2022/04/21 09:43:32;;;;;;;1.57;1.40;;;20.50;41.70;;;;;;5046480;28;20240;-91
2022/04/21 09:46:12;;;;;;;1.70;1.43;;;20.50;41.70;;;;;;5046727;28;20258;-90
2022/04/21 09:48:39;;;;;;;1.87;1.60;;;20.50;41.70;;;;;;5045447;28;20199;-90
2022/04/21 09:51:15;;;;;;;2.00;1.60;;;20.50;41.70;;;;;;5044286;28;20519;-91
2022/04/21 09:53:56;;;;;;;2.67;1.30;;;20.50;41.70;;;;;;5044160;28;20470;-91
2022/04/21 09:56:33;;;;;;;1.80;1.50;;;20.50;41.80;;;;;;5046343;28;20180;-90
2022/04/21 09:59:04;;;;;;;2.73;1.23;;;20.40;41.80;;;;;;5048434;28;20168;-92
2022/04/21 10:01:30;;;;;;;2.10;1.40;;;20.40;41.90;;;;;;5047749;28;20571;-92
2022/04/21 10:03:57;;;;;;;1.50;1.40;;;20.40;41.90;;;;;;5047014;28;20319;-92
2022/04/21 10:06:23;;;;;;;2.03;1.20;;;20.30;41.90;;;;;;5048550;28;20267;-93
2022/04/21 10:08:50;;;;;;;2.43;1.50;;;20.30;41.90;;;;;;5047486;28;20271;-92
2022/04/21 10:11:25;;;;;;;2.73;1.50;;;20.30;42.00;;;;;;5046852;28;20222;-92
2022/04/21 10:13:55;;;;;;;1.30;1.10;;;20.30;42.00;;;;;;5045306;28;20202;-92
2022/04/21 10:16:22;;;;;;;2.80;1.67;;;20.30;42.00;;;;;;5044238;28;20169;-92
2022/04/21 10:18:52;;;;;;;2.07;1.50;;;20.30;42.10;;;;;;5047557;28;20173;-93
2022/04/21 10:21:30;;;;;;;1.90;1.50;;;20.20;42.00;;;;;;5045859;28;20167;-92
2022/04/21 10:23:56;;;;;;;2.63;1.67;;;20.20;42.00;;;;;;5049480;28;20168;-93
2022/04/21 10:26:36;;;;;;;1.60;1.50;;;20.20;42.00;;;;;;5051494;28;20191;-92
2022/04/21 10:29:13;;;;;;;2.63;1.30;;;20.20;41.90;;;;;;5048884;28;20512;-91
2022/04/21 10:32:05;;;;;;;1.90;1.30;;;20.20;41.90;;;;;;5048771;28;20222;-91
2022/04/21 10:34:44;;;;;;;1.40;1.30;;;20.30;41.80;;;;;;5055230;28;20188;-91
2022/04/21 10:37:09;;;;;;;3.07;1.50;;;20.30;41.70;;;;;;5055751;28;20176;-91
2022/04/21 10:39:36;;;;;;;1.93;1.40;;;20.30;41.70;;;;;;5052776;28;20172;-91
2022/04/21 10:42:14;;;;;;;1.77;1.33;;;20.30;41.70;;;;;;5049741;28;20697;-92
2022/04/21 10:44:53;;;;;;;1.90;1.47;;;20.40;41.70;;;;;;5047758;28;20168;-92
2022/04/21 10:47:36;;;;;;;2.67;1.70;;;20.40;41.70;;;;;;5049754;28;20276;-91
2022/04/21 10:50:13;;;;;;;2.20;1.23;;;20.40;41.70;;;;;;5048269;28;20175;-92
2022/04/21 10:57:53;;;;;;;1.40;1.30;;;20.30;41.70;;;;;;5050043;28;20345;-92
2022/04/21 11:00:32;;;;;;;2.70;1.50;;;20.40;41.80;;;;;;5048124;28;20180;-91
2022/04/21 11:03:05;;;;;;;2.70;1.60;;;20.40;41.80;;;;;;5047689;28;20199;-91
2022/04/21 11:05:39;;;;;;;2.60;1.50;;;20.40;41.80;;;;;;5049547;28;20178;-91
2022/04/21 11:08:12;;;;;;;2.93;1.40;;;20.40;41.80;;;;;;5047976;28;20177;-91
2022/04/21 11:10:43;;;;;;;2.37;1.60;;;20.40;41.80;;;;;;5047520;28;20431;-92
2022/04/21 11:13:11;;;;;;;1.70;1.50;;;20.40;42.30;;;;;;5048004;28;20226;-92
2022/04/21 11:15:39;;;;;;;1.63;1.37;;;20.40;41.90;;;;;;5048538;28;20332;-91
2022/04/21 11:18:12;;;;;;;1.73;1.40;;;20.40;41.90;;;;;;5048101;28;20463;-92
2022/04/21 11:20:44;;;;;;;2.47;1.60;;;20.40;41.90;;;;;;5047205;28;20168;-91
2022/04/21 11:23:23;;;;;;;2.47;1.43;;;20.40;41.90;;;;;;5046837;28;20176;-90
2022/04/21 11:25:51;;;;;;;1.57;1.40;;;20.40;41.90;;;;;;5048153;28;20175;-93
2022/04/21 11:28:26;;;;;;;3.57;1.43;;;20.40;42.00;;;;;;5048149;28;20244;-91
2022/04/21 11:31:00;;;;;;;2.33;1.60;;;20.40;42.00;;;;;;5048663;28;20172;-92
2022/04/21 11:33:26;;;;;;;2.27;1.40;;;20.30;42.00;;;;;;5045937;28;20248;-91
2022/04/21 11:36:05;;;;;;;1.73;1.30;;;20.40;42.40;;;;;;5047491;28;20194;-92
2022/04/21 11:38:32;;;;;;;3.07;1.30;;;20.40;42.00;;;;;;5047556;28;20191;-91
2022/04/21 11:41:03;;;;;;;2.27;1.53;;;20.40;42.00;;;;;;5047512;28;20614;-92
2022/04/21 11:43:29;;;;;;;1.50;1.40;;;20.40;42.00;;;;;;5046848;28;20172;-92
2022/04/21 11:45:57;;;;;;;1.97;1.50;;;20.40;42.00;;;;;;5048372;28;20202;-91
2022/04/21 11:48:28;;;;;;;2.70;1.63;;;20.30;42.00;;;;;;5047419;28;20173;-91
2022/04/21 11:50:53;;;;;;;1.50;1.40;;;20.40;42.10;;;;;;5046159;28;20185;-91
2022/04/21 11:53:20;;;;;;;2.70;1.53;;;20.30;42.10;;;;;;5045905;28;20516;-91
2022/04/21 11:55:50;;;;;;;2.00;1.40;;;20.30;42.10;;;;;;5047195;28;20241;-92
2022/04/21 11:58:32;;;;;;;2.83;1.70;;;20.30;42.20;;;;;;5049200;28;20234;-92
2022/04/21 12:06:56;;;;;;;2.47;1.47;;;20.30;42.40;;;;;;5049445;28;20199;-91
2022/04/21 12:09:25;;;;;;;1.83;1.57;;;20.30;42.40;;;;;;5045654;28;20483;-92
2022/04/21 12:11:55;;;;;;;2.70;1.90;;;20.30;42.40;;;;;;5045338;28;20234;-91
2022/04/21 12:14:23;;;;;;;2.17;1.80;;;20.20;42.40;;;;;;5045078;28;20191;-91
2022/04/21 12:16:53;;;;;;;3.17;1.60;;;20.20;42.50;;;;;;5047338;28;20176;-92
2022/04/21 12:19:44;;;;;;;1.87;1.60;;;20.20;42.50;;;;;;5045799;28;20282;-91
2022/04/21 12:22:15;;;;;;;2.10;1.70;;;20.20;42.60;;;;;;5044531;28;20177;-91
2022/04/21 12:24:44;;;;;;;4.17;1.70;;;20.20;42.60;;;;;;5045134;28;20656;-91
2022/04/21 12:27:19;;;;;;;2.90;1.80;;;20.20;42.60;;;;;;5046140;28;20183;-91
2022/04/21 12:29:51;;;;;;;2.13;1.70;;;20.20;42.60;;;;;;5043006;28;20194;-91
2022/04/21 12:32:23;;;;;;;2.23;1.63;;;20.20;42.60;;;;;;5044259;28;20593;-91
2022/04/21 12:34:49;;;;;;;1.63;1.40;;;20.10;42.60;;;;;;5044180;28;20192;-92
2022/04/21 12:37:23;;;;;;;2.53;1.67;;;20.10;42.70;;;;;;5045678;28;20398;-91
2022/04/21 12:39:49;;;;;;;2.63;1.53;;;20.10;42.80;;;;;;5044716;28;20168;-92
2022/04/21 12:42:15;;;;;;;2.03;1.60;;;20.10;42.80;;;;;;5045646;28;20175;-91
2022/04/21 12:44:43;;;;;;;2.60;1.57;;;20.10;42.90;;;;;;5044463;28;20367;-91
2022/04/21 12:47:17;;;;;;;1.90;1.63;;;20.20;42.80;;;;;;5045835;28;20172;-92
2022/04/21 12:49:49;;;;;;;2.63;1.47;;;20.10;42.80;;;;;;5044992;28;20170;-92
2022/04/21 12:52:26;;;;;;;2.33;1.63;;;20.10;42.80;;;;;;5045030;28;20309;-92
2022/04/21 12:54:52;;;;;;;1.47;1.37;;;20.10;42.90;;;;;;5043629;28;20177;-92
2022/04/21 12:57:17;;;;;;;2.57;1.57;;;20.10;42.90;;;;;;5044837;28;20172;-91
2022/04/21 12:59:44;;;;;;;1.70;1.60;;;20.10;42.90;;;;;;5043985;28;20471;-91
2022/04/21 13:02:10;;;;;;;3.07;1.80;;;20.10;42.90;;;;;;5042322;28;20341;-92
2022/04/21 13:04:37;;;;;;;3.03;1.50;;;20.10;43.00;;;;;;5045071;28;20180;-92
2022/04/21 13:07:03;;;;;;;3.77;1.63;;;20.00;43.00;;;;;;5046901;28;20579;-92
2022/04/21 13:09:29;;;;;;;3.23;1.73;;;20.00;43.10;;;;;;5046544;28;20206;-91
2022/04/21 13:11:55;;;;;;;4.13;1.90;;;20.00;43.10;;;;;;5045499;28;20305;-93
2022/04/21 13:14:21;;;;;;;3.27;1.70;;;20.00;43.10;;;;;;5045067;28;20507;-92
2022/04/21 13:16:47;;;;;;;2.07;1.67;;;20.00;43.20;;;;;;5045745;28;20172;-92
2022/04/21 13:19:13;;;;;;;2.90;1.70;;;20.00;43.20;;;;;;5046655;28;20170;-93
2022/04/21 13:21:55;;;;;;;1.93;1.50;;;19.90;43.20;;;;;;5046574;28;20211;-93
2022/04/21 13:24:25;;;;;;;3.10;1.70;;;19.90;43.30;;;;;;5047490;28;20191;-93
2022/04/21 13:26:52;;;;;;;2.13;1.73;;;19.90;43.30;;;;;;5046159;28;20187;-92
2022/04/21 13:29:19;;;;;;;1.67;1.47;;;19.90;43.40;;;;;;5047480;28;20175;-93
2022/04/21 13:34:29;;;;;;;2.40;1.70;;;19.90;43.50;;;;;;5047481;28;20225;-90
2022/04/21 13:36:55;;;;;;;2.33;1.57;;;19.80;43.40;;;;;;5046327;28;20285;-92
2022/04/21 13:39:21;;;;;;;2.33;1.70;;;19.80;43.50;;;;;;5046428;28;20373;-92
2022/04/21 13:41:48;;;;;;;1.70;1.60;;;19.80;43.50;;;;;;5045953;28;20171;-92
2022/04/21 13:44:14;;;;;;;1.73;1.43;;;19.80;43.50;;;;;;5047202;28;20172;-93
2022/04/21 13:46:41;;;;;;;2.17;1.80;;;19.80;43.60;;;;;;5046665;28;20176;-92